createdAt,value
2019-05-28T00:02:33.697Z,20.93
2019-05-28T00:07:05.512Z,20.13
2019-05-28T00:11:36.485Z,20.53
2019-05-28T00:16:10.075Z,23.80
2019-05-28T00:20:44.532Z,22.23
2019-05-28T00:25:17.003Z,27.20
2019-05-28T00:29:51.919Z,21.17
2019-05-28T00:34:24.934Z,24.10
2019-05-28T00:38:56.891Z,22.47
2019-05-28T00:43:29.047Z,25.13
2019-05-28T00:48:02.312Z,25.60
2019-05-28T00:52:36.763Z,22.43
2019-05-28T00:57:08.597Z,23.60
2019-05-28T01:01:44.867Z,23.83
2019-05-28T01:06:19.133Z,23.90
2019-05-28T01:16:01.965Z,23.93
2019-05-28T01:20:46.555Z,24.90
2019-05-28T01:25:51.837Z,22.63
2019-05-28T02:26:51.090Z,20.43
2019-05-28T04:39:36.927Z,33.50
2019-05-28T05:09:36.154Z,25.93
2019-05-28T05:51:50.806Z,26.07
2019-05-28T05:56:44.364Z,33.97
2019-05-28T06:01:29.156Z,27.67
2019-05-28T06:56:07.714Z,16.77
2019-05-28T10:00:28.777Z,14.13
2019-05-28T10:05:01.557Z,11.37
2019-05-28T10:09:33.317Z,13.57
2019-05-28T10:14:05.675Z,16.60
2019-05-28T10:18:38.512Z,18.07
2019-05-28T10:23:28.983Z,15.43
2019-05-28T10:28:10.291Z,10.87
2019-05-28T10:32:44.656Z,11.87
2019-05-28T10:37:16.400Z,12.13
2019-05-28T10:41:50.515Z,10.93
2019-05-28T10:46:26.726Z,11.80
2019-05-28T10:51:18.512Z,13.27
2019-05-28T10:55:50.578Z,13.90
2019-05-28T11:00:24.028Z,13.90
2019-05-28T11:04:56.406Z,15.90
2019-05-28T11:09:28.922Z,10.23
2019-05-28T11:14:00.839Z,12.10
2019-05-28T11:18:32.826Z,14.03
2019-05-28T11:23:05.604Z,16.83
2019-05-28T11:27:39.832Z,11.03
2019-05-28T11:32:13.160Z,13.33
2019-05-28T11:36:44.735Z,21.23
2019-05-28T11:41:16.175Z,14.80
2019-05-28T11:45:50.506Z,18.77
2019-05-28T11:54:58.525Z,18.13
2019-05-28T11:59:30.854Z,18.70
2019-05-28T12:04:05.913Z,19.20
2019-05-28T12:08:40.869Z,12.60
2019-05-28T12:13:14.919Z,14.40
2019-05-28T12:17:46.752Z,17.80
2019-05-28T12:22:19.996Z,14.37
2019-05-28T12:26:52.266Z,13.23
2019-05-28T12:31:24.942Z,14.03
2019-05-28T12:36:05.995Z,12.93
2019-05-28T12:40:48.062Z,15.77
2019-05-28T12:45:51.831Z,19.47
2019-05-28T12:50:17.887Z,18.90
2019-05-28T13:27:17.816Z,12.30
2019-05-28T13:31:39.692Z,15.65
2019-05-28T13:36:10.836Z,15.33
2019-05-28T13:40:44.489Z,21.17
2019-05-28T13:45:19.897Z,13.73
2019-05-28T13:49:51.344Z,16.37
2019-05-28T13:54:23.686Z,14.87
2019-05-28T13:58:55.391Z,12.73
2019-05-28T14:03:27.760Z,18.43
2019-05-28T14:07:59.061Z,14.80
2019-05-28T14:12:31.515Z,13.97
2019-05-28T14:17:07.339Z,10.53
2019-05-28T14:21:44.098Z,13.97
2019-05-28T14:26:17.658Z,19.60
2019-05-28T14:30:59.162Z,15.70
2019-05-28T14:35:19.685Z,15.87
2019-05-28T14:39:52.588Z,17.53
2019-05-28T14:44:26.396Z,17.43
2019-05-28T14:48:58.530Z,22.17
2019-05-28T14:53:29.773Z,16.20
2019-05-28T14:58:05.722Z,25.13
2019-05-28T15:02:43.426Z,29.43
2019-05-28T15:07:20.313Z,21.17
2019-05-28T15:11:54.051Z,21.73
2019-05-28T15:16:25.039Z,18.63
2019-05-28T15:20:59.399Z,15.80
2019-05-28T15:25:33.907Z,20.70
2019-05-28T15:30:06.449Z,19.90
2019-05-28T15:34:40.455Z,15.47
2019-05-28T15:39:15.056Z,20.67
2019-05-28T15:43:48.493Z,16.07
2019-05-28T15:48:24.788Z,18.90
2019-05-28T15:52:59.780Z,14.00
2019-05-28T15:57:31.067Z,9.80
2019-05-28T16:02:03.110Z,8.13
2019-05-28T16:06:35.177Z,6.57
2019-05-28T16:11:08.667Z,6.43
2019-05-28T16:15:40.631Z,8.00
2019-05-28T16:20:15.623Z,8.53
2019-05-28T16:24:49.105Z,13.77
2019-05-28T16:29:23.509Z,6.57
2019-05-28T16:33:56.673Z,5.50
2019-05-28T16:38:29.001Z,7.30
2019-05-28T16:43:02.254Z,8.53
2019-05-28T16:47:34.194Z,7.67
2019-05-28T16:52:07.615Z,8.83
2019-05-28T16:56:39.991Z,6.27
2019-05-28T17:01:22.545Z,7.07
2019-05-28T17:05:52.099Z,7.37
2019-05-28T17:10:33.076Z,7.03
2019-05-28T17:14:58.775Z,10.03
2019-05-28T17:19:30.729Z,12.47
2019-05-28T17:24:04.713Z,8.53
2019-05-28T17:28:39.934Z,8.20
2019-05-28T17:33:13.786Z,10.87
2019-05-28T17:37:45.659Z,8.37
2019-05-28T17:42:23.336Z,9.37
2019-05-28T17:46:56.567Z,9.00
2019-05-28T17:51:28.497Z,10.03
2019-05-28T17:56:01.416Z,8.63
2019-05-28T18:00:35.624Z,10.07
2019-05-28T18:05:00.798Z,10.43
2019-05-28T18:09:35.931Z,14.00
2019-05-28T18:14:12.009Z,9.80
2019-05-28T18:18:48.419Z,8.33
2019-05-28T18:23:19.928Z,11.33
2019-05-28T18:27:54.824Z,11.20
2019-05-28T18:32:41.034Z,11.53
2019-05-28T18:37:19.170Z,9.77
2019-05-28T18:41:51.957Z,13.73
2019-05-28T18:51:24.417Z,11.53
2019-05-28T18:55:57.021Z,11.33
2019-05-28T19:05:04.318Z,8.87
2019-05-28T19:09:38.714Z,10.80
2019-05-28T19:14:12.983Z,17.33
2019-05-28T19:18:49.390Z,13.67
2019-05-28T19:23:19.665Z,13.00
2019-05-28T19:27:56.796Z,14.47
2019-05-28T19:41:53.913Z,19.43
2019-05-28T19:46:15.432Z,20.17
2019-05-28T19:50:46.168Z,16.77
2019-05-28T19:55:26.091Z,18.37
2019-05-28T19:59:38.710Z,20.80
2019-05-28T20:04:07.269Z,17.03
2019-05-28T20:08:38.679Z,22.27
2019-05-28T20:13:15.886Z,18.53
2019-05-28T20:17:48.344Z,18.50
2019-05-28T20:22:27.124Z,19.77
2019-05-28T20:27:00.645Z,22.77
2019-05-28T20:35:41.765Z,20.27
2019-05-28T20:40:15.160Z,23.13
2019-05-28T20:44:50.023Z,18.97
2019-05-28T20:49:26.564Z,26.47
2019-05-28T20:53:58.787Z,23.60
2019-05-28T20:58:40.391Z,20.70
2019-05-28T21:03:08.643Z,20.40
2019-05-28T21:07:18.694Z,23.97
2019-05-28T21:12:05.180Z,20.73
2019-05-28T21:16:40.235Z,21.30
2019-05-28T21:21:13.580Z,22.80
2019-05-28T21:25:47.196Z,27.97
2019-05-28T21:35:16.205Z,27.73
2019-05-28T21:39:51.437Z,22.13
2019-05-28T21:44:25.904Z,24.13
2019-05-28T21:48:58.599Z,25.30
2019-05-28T21:53:32.277Z,27.17
2019-05-28T21:58:04.148Z,24.43
2019-05-28T22:02:36.495Z,29.50
2019-05-28T22:11:12.801Z,25.67
2019-05-28T22:16:05.793Z,21.80
2019-05-28T22:20:36.270Z,23.00
2019-05-28T22:25:08.796Z,20.83
2019-05-28T22:29:39.858Z,25.60
2019-05-28T22:34:13.179Z,24.50
2019-05-28T22:38:46.342Z,20.37
2019-05-28T22:43:30.884Z,26.13
2019-05-28T22:47:53.190Z,22.87
2019-05-28T22:52:24.909Z,29.67
2019-05-28T23:01:41.141Z,27.53
2019-05-28T23:06:13.815Z,26.00
2019-05-28T23:11:05.231Z,28.40
2019-05-28T23:15:40.135Z,29.00
2019-05-28T23:20:12.973Z,28.87
2019-05-28T23:24:45.243Z,31.27
2019-05-28T23:29:16.511Z,34.43
2019-05-28T23:33:53.907Z,28.57
2019-05-28T23:38:45.051Z,32.00
2019-05-28T23:43:17.352Z,33.57
2019-05-28T23:47:49.161Z,31.97
2019-05-28T23:52:23.499Z,25.90
2019-05-28T23:56:55.004Z,32.47
